createdAt,value
2022-12-11T00:02:11.036Z,49.20
2022-12-11T00:04:37.526Z,49.20
2022-12-11T00:07:03.999Z,49.10
2022-12-11T00:09:30.450Z,49.30
2022-12-11T00:11:56.913Z,49.10
2022-12-11T00:14:23.382Z,50.20
2022-12-11T00:16:49.954Z,50.20
2022-12-11T00:19:16.505Z,50.00
2022-12-11T00:21:42.986Z,50.10
2022-12-11T00:24:09.479Z,50.20
2022-12-11T00:26:35.962Z,50.00
2022-12-11T00:29:02.435Z,50.00
2022-12-11T00:31:28.947Z,50.00
2022-12-11T00:36:39.294Z,50.20
2022-12-11T00:39:05.758Z,49.90
2022-12-11T00:41:32.210Z,50.00
2022-12-11T00:43:58.686Z,50.20
2022-12-11T00:46:25.171Z,50.10
2022-12-11T00:48:51.703Z,50.20
2022-12-11T00:51:18.169Z,50.20
2022-12-11T00:53:44.635Z,50.00
2022-12-11T00:56:11.104Z,50.00
2022-12-11T00:58:37.576Z,50.10
2022-12-11T01:01:04.078Z,50.20
2022-12-11T01:03:30.626Z,50.20
2022-12-11T01:05:57.095Z,50.10
2022-12-11T01:08:23.588Z,50.00
2022-12-11T01:10:50.230Z,50.00
2022-12-11T01:13:16.729Z,49.80
2022-12-11T01:15:43.211Z,49.90
2022-12-11T01:18:09.668Z,49.90
2022-12-11T01:20:36.133Z,50.10
2022-12-11T01:23:02.571Z,50.00
2022-12-11T01:25:29.025Z,50.00
2022-12-11T01:27:55.483Z,50.10
2022-12-11T01:30:21.938Z,49.90
2022-12-11T01:32:48.387Z,50.10
2022-12-11T01:35:14.868Z,50.10
2022-12-11T01:37:41.338Z,50.20
2022-12-11T01:40:07.803Z,50.20
2022-12-11T01:42:34.279Z,50.20
2022-12-11T01:45:00.753Z,50.20
2022-12-11T01:47:27.240Z,50.30
2022-12-11T01:49:53.710Z,50.30
2022-12-11T01:52:20.170Z,50.40
2022-12-11T01:54:46.620Z,50.30
2022-12-11T01:57:13.085Z,50.20
2022-12-11T01:59:39.555Z,50.30
2022-12-11T02:02:06.117Z,50.30
2022-12-11T02:04:32.620Z,50.40
2022-12-11T02:06:59.123Z,50.40
2022-12-11T02:09:25.584Z,50.40
2022-12-11T02:11:52.057Z,50.40
2022-12-11T02:14:18.509Z,50.40
2022-12-11T02:16:45.034Z,50.30
2022-12-11T02:19:11.530Z,50.50
2022-12-11T02:21:37.975Z,50.40
2022-12-11T02:24:04.429Z,50.30
2022-12-11T02:26:30.909Z,50.30
2022-12-11T02:28:57.357Z,50.40
2022-12-11T02:31:23.887Z,50.30
2022-12-11T02:33:50.429Z,50.30
2022-12-11T02:36:16.903Z,50.50
2022-12-11T02:38:43.361Z,50.40
2022-12-11T02:41:09.839Z,50.50
2022-12-11T02:43:36.293Z,50.60
2022-12-11T02:46:02.905Z,50.60
2022-12-11T02:48:29.383Z,50.50
2022-12-11T02:50:55.850Z,50.50
2022-12-11T02:53:22.308Z,50.60
2022-12-11T02:55:48.754Z,50.60
2022-12-11T02:58:15.212Z,50.60
2022-12-11T03:00:41.652Z,50.60
2022-12-11T03:03:08.121Z,50.50
2022-12-11T03:05:34.618Z,50.80
2022-12-11T03:08:01.124Z,50.80
2022-12-11T03:10:27.631Z,50.80
2022-12-11T03:12:54.226Z,50.60
2022-12-11T03:15:20.717Z,50.70
2022-12-11T03:17:47.196Z,50.60
2022-12-11T03:20:13.652Z,50.60
2022-12-11T03:22:40.110Z,50.60
2022-12-11T03:25:06.576Z,50.70
2022-12-11T03:27:33.052Z,50.70
2022-12-11T03:29:59.520Z,50.60
2022-12-11T03:32:25.939Z,50.70
2022-12-11T03:34:56.939Z,50.60
2022-12-11T03:37:24.725Z,50.70
2022-12-11T03:39:51.190Z,50.70
2022-12-11T03:42:17.649Z,50.70
2022-12-11T03:44:44.098Z,50.60
2022-12-11T03:47:10.569Z,50.60
2022-12-11T03:49:37.025Z,50.60
2022-12-11T03:52:03.662Z,50.60
2022-12-11T03:54:30.130Z,50.70
2022-12-11T03:56:56.600Z,50.80
2022-12-11T03:59:23.069Z,50.80
2022-12-11T04:01:49.594Z,50.80
2022-12-11T04:04:16.084Z,50.70
2022-12-11T04:06:42.576Z,50.90
2022-12-11T04:09:09.022Z,50.90
2022-12-11T04:11:35.463Z,50.80
2022-12-11T04:14:01.951Z,50.60
2022-12-11T04:16:28.409Z,50.70
2022-12-11T04:18:54.900Z,50.80
2022-12-11T04:21:21.364Z,50.90
2022-12-11T04:23:47.818Z,50.90
2022-12-11T04:26:14.298Z,50.70
2022-12-11T04:28:40.762Z,50.70
2022-12-11T04:31:07.297Z,50.70
2022-12-11T04:33:33.819Z,50.70
2022-12-11T04:36:00.288Z,50.60
2022-12-11T04:38:26.748Z,51.20
2022-12-11T04:40:53.221Z,50.80
2022-12-11T04:43:19.687Z,50.80
2022-12-11T04:45:46.132Z,50.90
2022-12-11T04:48:12.606Z,50.90
2022-12-11T04:50:39.059Z,50.90
2022-12-11T04:53:05.517Z,50.90
2022-12-11T04:55:31.989Z,50.90
2022-12-11T04:57:58.434Z,51.00
2022-12-11T05:00:24.902Z,50.90
2022-12-11T05:02:51.391Z,50.90
2022-12-11T05:05:17.856Z,50.80
2022-12-11T05:07:44.387Z,50.70
2022-12-11T05:10:10.864Z,51.00
2022-12-11T05:12:37.339Z,50.90
2022-12-11T05:15:03.796Z,50.60
2022-12-11T05:17:30.259Z,50.40
2022-12-11T05:19:56.716Z,50.30
2022-12-11T05:22:23.186Z,50.30
2022-12-11T05:24:49.641Z,49.40
2022-12-11T05:27:16.104Z,49.20
2022-12-11T05:29:42.566Z,49.00
2022-12-11T05:32:09.046Z,50.40
2022-12-11T05:34:35.518Z,49.60
2022-12-11T05:37:01.996Z,49.50
2022-12-11T05:39:28.478Z,49.90
2022-12-11T05:41:54.927Z,50.10
2022-12-11T05:44:21.379Z,49.90
2022-12-11T05:46:47.872Z,49.90
2022-12-11T05:49:14.801Z,50.10
2022-12-11T05:51:43.048Z,50.10
2022-12-11T05:54:09.523Z,50.00
2022-12-11T05:56:36.085Z,50.10
2022-12-11T05:59:02.729Z,49.90
2022-12-11T06:01:29.171Z,50.10
2022-12-11T06:03:55.646Z,50.30
2022-12-11T06:06:22.116Z,50.30
2022-12-11T06:08:48.585Z,50.10
2022-12-11T06:11:18.396Z,50.20
2022-12-11T06:13:47.459Z,50.30
2022-12-11T06:16:13.936Z,50.00
2022-12-11T06:18:40.411Z,50.30
2022-12-11T06:21:06.880Z,50.20
2022-12-11T06:23:33.342Z,50.50
2022-12-11T06:25:59.807Z,50.00
2022-12-11T06:28:26.278Z,50.10
2022-12-11T06:30:52.749Z,50.00
2022-12-11T06:33:19.210Z,49.80
2022-12-11T06:35:45.684Z,49.60
2022-12-11T06:38:12.141Z,50.00
2022-12-11T06:40:38.607Z,49.80
2022-12-11T06:43:05.085Z,49.30
2022-12-11T06:45:31.571Z,49.70
2022-12-11T06:47:58.090Z,49.90
2022-12-11T06:50:24.556Z,50.20
2022-12-11T06:52:51.031Z,49.90
2022-12-11T06:55:17.486Z,49.90
2022-12-11T06:57:43.958Z,49.60
2022-12-11T07:00:10.431Z,49.80
2022-12-11T07:02:36.933Z,49.50
2022-12-11T07:05:03.455Z,49.90
2022-12-11T07:07:29.927Z,49.60
2022-12-11T07:09:56.386Z,49.60
2022-12-11T07:12:22.850Z,49.70
2022-12-11T07:14:49.300Z,49.70
2022-12-11T07:17:15.753Z,49.60
2022-12-11T07:19:42.212Z,49.40
2022-12-11T07:22:08.699Z,49.40
2022-12-11T07:24:35.143Z,49.40
2022-12-11T07:27:01.597Z,49.00
2022-12-11T07:29:28.066Z,49.60
2022-12-11T07:31:54.609Z,49.70
2022-12-11T07:34:21.140Z,49.20
2022-12-11T07:36:47.612Z,49.00
2022-12-11T07:39:14.073Z,48.80
2022-12-11T07:41:40.526Z,48.80
2022-12-11T07:44:07.005Z,48.80
2022-12-11T07:46:33.471Z,48.80
2022-12-11T07:48:59.915Z,48.90
2022-12-11T07:51:26.400Z,48.80
2022-12-11T07:53:52.853Z,49.10
2022-12-11T07:56:19.316Z,49.00
2022-12-11T07:58:45.776Z,48.90
2022-12-11T08:01:12.251Z,48.70
2022-12-11T08:03:38.747Z,48.60
2022-12-11T08:06:05.198Z,48.40
2022-12-11T08:08:31.648Z,48.10
2022-12-11T08:10:58.106Z,48.40
2022-12-11T08:13:24.568Z,48.60
2022-12-11T08:15:51.018Z,48.40
2022-12-11T08:18:17.502Z,48.30
2022-12-11T08:20:43.992Z,48.20
2022-12-11T08:23:10.456Z,48.40
2022-12-11T08:25:36.903Z,48.40
2022-12-11T08:28:03.374Z,48.80
2022-12-11T08:30:29.891Z,48.70
2022-12-11T08:32:56.375Z,48.40
2022-12-11T08:35:22.838Z,48.50
2022-12-11T08:37:49.289Z,48.60
2022-12-11T08:40:15.758Z,48.30
2022-12-11T08:42:42.238Z,48.50
2022-12-11T08:45:08.804Z,48.50
2022-12-11T08:47:35.373Z,48.30
2022-12-11T08:50:01.827Z,48.00
2022-12-11T08:52:28.306Z,48.10
2022-12-11T08:54:54.767Z,48.20
2022-12-11T08:57:21.216Z,48.00
2022-12-11T08:59:47.679Z,48.00
2022-12-11T09:02:14.235Z,48.40
2022-12-11T09:04:40.708Z,48.30
2022-12-11T09:07:07.165Z,48.20
2022-12-11T09:09:33.619Z,48.30
2022-12-11T09:12:00.071Z,48.30
2022-12-11T09:14:26.533Z,48.10
2022-12-11T09:16:52.976Z,47.90
2022-12-11T09:19:19.462Z,47.90
2022-12-11T09:21:45.934Z,47.90
2022-12-11T09:24:12.397Z,47.90
2022-12-11T09:26:38.875Z,47.90
2022-12-11T09:29:05.330Z,47.80
2022-12-11T09:31:31.830Z,47.60
2022-12-11T09:33:58.288Z,47.60
2022-12-11T09:36:24.745Z,47.90
2022-12-11T09:38:51.212Z,48.10
2022-12-11T09:41:17.680Z,48.00
2022-12-11T09:43:44.132Z,48.00
2022-12-11T09:46:10.637Z,48.00
2022-12-11T09:48:37.116Z,47.90
2022-12-11T09:51:03.592Z,47.90
2022-12-11T09:53:34.086Z,47.90
2022-12-11T09:56:00.943Z,48.00
2022-12-11T09:58:27.416Z,47.90
2022-12-11T10:00:53.886Z,47.90
2022-12-11T10:03:20.348Z,47.90
2022-12-11T10:05:46.818Z,48.20
2022-12-11T10:08:13.293Z,48.30
2022-12-11T10:10:39.811Z,48.20
2022-12-11T10:13:06.246Z,48.30
2022-12-11T10:15:32.748Z,48.30
2022-12-11T10:18:04.703Z,48.30
2022-12-11T10:20:31.722Z,48.30
2022-12-11T10:22:58.193Z,47.70
2022-12-11T10:25:25.041Z,48.00
2022-12-11T10:27:51.828Z,48.30
2022-12-11T10:30:18.401Z,48.20
2022-12-11T10:32:44.879Z,49.00
2022-12-11T10:35:11.604Z,48.60
2022-12-11T10:37:38.266Z,48.30
2022-12-11T10:40:04.764Z,48.40
2022-12-11T10:42:31.225Z,48.20
2022-12-11T10:44:57.691Z,48.40
2022-12-11T10:47:24.138Z,48.60
2022-12-11T10:49:50.582Z,48.40
2022-12-11T10:52:17.053Z,49.20
2022-12-11T10:54:43.513Z,48.70
2022-12-11T10:57:09.984Z,48.60
2022-12-11T10:59:36.447Z,48.70
2022-12-11T11:02:02.951Z,48.80
2022-12-11T11:04:29.430Z,49.00
2022-12-11T11:06:55.872Z,49.10
2022-12-11T11:09:22.333Z,49.10
2022-12-11T11:11:48.810Z,49.10
2022-12-11T11:14:15.283Z,49.10
2022-12-11T11:16:41.769Z,49.10
2022-12-11T11:19:08.226Z,48.90
2022-12-11T11:21:34.720Z,49.00
2022-12-11T11:24:01.177Z,48.80
2022-12-11T11:26:38.402Z,49.00
2022-12-11T11:29:14.072Z,49.00
2022-12-11T11:31:40.564Z,49.10
2022-12-11T11:34:07.053Z,49.10
2022-12-11T11:36:33.523Z,49.10
2022-12-11T11:38:59.984Z,49.30
2022-12-11T11:41:26.444Z,49.20
2022-12-11T11:43:52.902Z,49.20
2022-12-11T11:46:19.421Z,49.30
2022-12-11T11:48:45.890Z,49.30
2022-12-11T11:51:12.344Z,49.30
2022-12-11T11:53:38.808Z,49.20
2022-12-11T11:56:05.279Z,49.30
2022-12-11T11:58:31.720Z,49.40
2022-12-11T12:00:58.179Z,49.20
2022-12-11T12:03:24.626Z,49.10
2022-12-11T12:05:51.100Z,49.10
2022-12-11T12:08:17.579Z,49.10
2022-12-11T12:10:44.039Z,49.20
2022-12-11T12:13:30.213Z,49.30
2022-12-11T12:15:56.961Z,49.00
2022-12-11T12:18:23.475Z,49.20
2022-12-11T12:20:49.950Z,49.30
2022-12-11T12:23:16.400Z,49.30
2022-12-11T12:25:42.874Z,49.20
2022-12-11T12:28:09.330Z,49.20
2022-12-11T12:30:35.790Z,49.30
2022-12-11T12:33:02.248Z,49.50
2022-12-11T12:35:28.717Z,49.60
2022-12-11T12:37:55.186Z,49.50
2022-12-11T12:40:21.658Z,49.20
2022-12-11T12:42:48.101Z,48.80
2022-12-11T12:45:14.763Z,49.00
2022-12-11T12:47:41.332Z,49.30
2022-12-11T12:50:07.782Z,49.50
2022-12-11T12:52:34.245Z,49.60
2022-12-11T12:55:00.708Z,49.80
2022-12-11T12:57:27.168Z,50.10
2022-12-11T12:59:53.631Z,49.90
2022-12-11T13:02:20.221Z,49.60
2022-12-11T13:04:55.898Z,49.50
2022-12-11T13:07:22.976Z,49.80
2022-12-11T13:09:49.424Z,49.90
2022-12-11T13:12:15.911Z,50.10
2022-12-11T13:14:42.354Z,49.90
2022-12-11T13:17:08.818Z,49.70
2022-12-11T13:19:40.675Z,49.50
2022-12-11T13:22:08.967Z,49.00
2022-12-11T13:24:35.441Z,49.90
2022-12-11T13:27:01.893Z,49.10
2022-12-11T13:29:28.377Z,49.00
2022-12-11T13:31:54.882Z,49.30
2022-12-11T13:34:21.406Z,49.20
2022-12-11T13:36:47.880Z,48.90
2022-12-11T13:39:14.342Z,49.20
2022-12-11T13:41:40.833Z,49.00
2022-12-11T13:44:07.294Z,48.30
2022-12-11T13:46:33.758Z,48.40
2022-12-11T13:49:00.229Z,48.70
2022-12-11T13:51:26.715Z,48.20
2022-12-11T13:53:53.183Z,47.90
2022-12-11T13:56:19.669Z,47.70
2022-12-11T13:58:46.137Z,47.50
2022-12-11T14:01:12.667Z,47.40
2022-12-11T14:03:39.157Z,47.30
2022-12-11T14:06:05.621Z,47.40
2022-12-11T14:08:32.112Z,47.40
2022-12-11T14:10:58.596Z,47.50
2022-12-11T14:13:25.048Z,47.30
2022-12-11T14:15:51.502Z,48.10
2022-12-11T14:18:17.974Z,48.60
2022-12-11T14:20:44.447Z,49.10
2022-12-11T14:23:10.919Z,49.20
2022-12-11T14:25:37.381Z,49.60
2022-12-11T14:28:03.836Z,49.70
2022-12-11T14:30:30.301Z,49.30
2022-12-11T14:32:56.787Z,49.30
2022-12-11T14:35:23.263Z,48.60
2022-12-11T14:37:49.725Z,48.20
2022-12-11T14:40:16.190Z,48.10
2022-12-11T14:42:42.675Z,47.80
2022-12-11T14:45:09.137Z,47.80
2022-12-11T14:50:26.313Z,47.50
2022-12-11T14:52:52.776Z,48.40
2022-12-11T14:55:27.702Z,48.90
2022-12-11T14:57:57.599Z,49.70
2022-12-11T15:00:24.099Z,49.40
2022-12-11T15:02:50.630Z,49.40
2022-12-11T15:05:17.096Z,49.50
2022-12-11T15:07:43.561Z,49.10
2022-12-11T15:10:10.443Z,48.60
2022-12-11T15:12:37.092Z,48.30
2022-12-11T15:15:03.547Z,48.10
2022-12-11T15:17:33.643Z,47.90
2022-12-11T15:20:00.111Z,47.80
2022-12-11T15:22:26.583Z,47.80
2022-12-11T15:24:53.047Z,48.00
2022-12-11T15:27:19.503Z,48.20
2022-12-11T15:29:45.972Z,48.70
2022-12-11T15:32:12.434Z,49.30
2022-12-11T15:34:39.642Z,49.30
2022-12-11T15:37:06.099Z,49.40
2022-12-11T15:39:33.650Z,49.60
2022-12-11T15:42:00.101Z,49.60
2022-12-11T15:44:26.583Z,49.10
2022-12-11T15:46:53.058Z,48.60
2022-12-11T15:49:19.533Z,48.20
2022-12-11T15:51:51.851Z,47.90
2022-12-11T15:54:18.315Z,47.90
2022-12-11T15:56:44.782Z,48.10
2022-12-11T15:59:11.243Z,47.90
2022-12-11T16:01:37.789Z,47.80
2022-12-11T16:04:09.692Z,48.00
2022-12-11T16:06:36.152Z,49.10
2022-12-11T16:09:02.619Z,49.30
2022-12-11T16:11:29.087Z,49.70
2022-12-11T16:13:55.561Z,49.80
2022-12-11T16:16:22.076Z,49.60
2022-12-11T16:18:48.565Z,49.30
2022-12-11T16:21:19.880Z,48.80
2022-12-11T16:23:47.958Z,48.40
2022-12-11T16:26:15.656Z,48.00
2022-12-11T16:28:42.174Z,47.80
2022-12-11T16:31:08.687Z,47.90
2022-12-11T16:33:35.223Z,47.90
2022-12-11T16:36:03.708Z,47.90
2022-12-11T16:38:30.167Z,47.60
2022-12-11T16:40:56.630Z,48.10
2022-12-11T16:43:23.081Z,48.60
2022-12-11T16:45:51.697Z,49.00
2022-12-11T16:48:21.908Z,49.30
2022-12-11T16:50:48.378Z,49.50
2022-12-11T16:53:14.840Z,49.60
2022-12-11T16:55:45.716Z,49.20
2022-12-11T16:58:12.174Z,48.50
2022-12-11T17:00:38.636Z,48.20
2022-12-11T17:03:05.126Z,47.80
2022-12-11T17:05:31.623Z,47.70
2022-12-11T17:07:58.126Z,47.70
2022-12-11T17:10:24.616Z,47.70
2022-12-11T17:12:51.082Z,47.60
2022-12-11T17:15:17.554Z,47.70
2022-12-11T17:17:44.011Z,48.30
2022-12-11T17:20:10.473Z,49.30
2022-12-11T17:22:36.916Z,48.80
2022-12-11T17:25:03.373Z,48.80
2022-12-11T17:27:29.860Z,49.20
2022-12-11T17:29:56.357Z,49.50
2022-12-11T17:32:27.798Z,48.90
2022-12-11T17:34:54.300Z,48.40
2022-12-11T17:37:27.824Z,48.00
2022-12-11T17:39:57.752Z,47.90
2022-12-11T17:42:24.201Z,47.80
2022-12-11T17:44:51.767Z,47.60
2022-12-11T17:47:21.942Z,47.50
2022-12-11T17:49:48.409Z,47.40
2022-12-11T17:52:14.883Z,48.00
2022-12-11T17:54:41.348Z,48.60
2022-12-11T17:57:07.799Z,48.70
2022-12-11T17:59:34.272Z,48.60
2022-12-11T18:02:00.890Z,49.10
2022-12-11T18:04:30.210Z,49.20
2022-12-11T18:06:56.677Z,48.70
2022-12-11T18:09:23.159Z,48.20
2022-12-11T18:11:49.623Z,47.70
2022-12-11T18:14:17.530Z,47.70
2022-12-11T18:16:44.176Z,47.60
2022-12-11T18:19:10.638Z,47.50
2022-12-11T18:21:39.772Z,47.50
2022-12-11T18:24:06.242Z,47.40
2022-12-11T18:26:32.724Z,47.40
2022-12-11T18:28:59.181Z,47.30
2022-12-11T18:31:25.690Z,47.50
2022-12-11T18:33:52.152Z,47.30
2022-12-11T18:36:18.625Z,47.50
2022-12-11T18:38:45.081Z,47.40
2022-12-11T18:41:11.559Z,47.50
2022-12-11T18:43:38.031Z,47.60
2022-12-11T18:46:04.618Z,47.40
2022-12-11T18:48:31.141Z,47.50
2022-12-11T18:50:57.661Z,47.20
2022-12-11T18:53:27.814Z,47.50
2022-12-11T18:56:00.077Z,47.30
2022-12-11T18:58:26.948Z,47.50
2022-12-11T19:00:53.517Z,47.40
2022-12-11T19:03:20.015Z,47.50
2022-12-11T19:05:51.810Z,47.30
2022-12-11T19:08:18.367Z,47.40
2022-12-11T19:10:44.926Z,47.20
2022-12-11T19:13:11.400Z,47.60
2022-12-11T19:15:39.856Z,47.30
2022-12-11T19:18:06.327Z,47.30
2022-12-11T19:20:48.613Z,47.60
2022-12-11T19:23:16.547Z,47.40
2022-12-11T19:25:43.050Z,47.60
2022-12-11T19:28:09.495Z,47.30
2022-12-11T19:30:35.951Z,47.20
2022-12-11T19:33:02.428Z,47.50
2022-12-11T19:35:28.873Z,47.80
2022-12-11T19:37:55.322Z,47.50
2022-12-11T19:40:21.782Z,47.80
2022-12-11T19:42:51.852Z,47.90
2022-12-11T19:45:27.987Z,48.20
2022-12-11T19:47:54.463Z,48.20
2022-12-11T19:50:20.919Z,48.30
2022-12-11T19:52:47.388Z,48.30
2022-12-11T19:55:13.999Z,48.20
2022-12-11T19:57:40.526Z,48.40
2022-12-11T20:00:06.975Z,48.40
2022-12-11T20:02:33.519Z,48.50
2022-12-11T20:04:59.977Z,48.60
2022-12-11T20:07:30.649Z,48.60
2022-12-11T20:09:57.367Z,48.70
2022-12-11T20:12:23.828Z,48.80
2022-12-11T20:14:50.279Z,48.80
2022-12-11T20:17:16.823Z,48.90
2022-12-11T20:19:43.349Z,48.80
2022-12-11T20:22:09.805Z,48.80
2022-12-11T20:24:40.073Z,48.90
2022-12-11T20:27:06.549Z,48.80
2022-12-11T20:29:33.008Z,48.80
2022-12-11T20:31:59.607Z,48.80
2022-12-11T20:34:26.230Z,48.80
2022-12-11T20:36:52.711Z,48.90
2022-12-11T20:39:19.191Z,48.80
2022-12-11T20:41:45.695Z,48.80
2022-12-11T20:44:12.151Z,48.80
2022-12-11T20:46:38.627Z,48.70
2022-12-11T20:49:05.084Z,49.40
2022-12-11T20:51:31.545Z,48.80
2022-12-11T20:53:58.021Z,48.80
2022-12-11T20:56:24.473Z,48.70
2022-12-11T20:58:50.946Z,48.80
2022-12-11T21:01:17.450Z,49.00
2022-12-11T21:03:43.986Z,48.70
2022-12-11T21:06:10.465Z,48.80
2022-12-11T21:08:36.932Z,48.70
2022-12-11T21:11:03.394Z,49.00
2022-12-11T21:13:29.860Z,49.00
2022-12-11T21:15:56.328Z,49.00
2022-12-11T21:18:22.818Z,48.90
2022-12-11T21:20:49.284Z,48.90
2022-12-11T21:23:15.765Z,48.90
2022-12-11T21:25:42.219Z,48.90
2022-12-11T21:28:08.699Z,48.90
2022-12-11T21:30:39.986Z,48.80
2022-12-11T21:33:06.494Z,49.00
2022-12-11T21:35:32.941Z,49.00
2022-12-11T21:37:59.411Z,48.90
2022-12-11T21:40:25.882Z,48.90
2022-12-11T21:42:52.337Z,48.90
2022-12-11T21:45:59.238Z,48.90
2022-12-11T21:48:10.151Z,48.90
2022-12-11T21:50:36.617Z,49.60
2022-12-11T21:53:03.092Z,48.90
2022-12-11T21:55:29.567Z,48.90
2022-12-11T21:57:56.030Z,48.90
2022-12-11T22:00:27.972Z,48.90
2022-12-11T22:02:54.473Z,48.70
2022-12-11T22:05:20.944Z,48.70
2022-12-11T22:07:47.461Z,48.70
2022-12-11T22:10:13.974Z,48.80
2022-12-11T22:12:40.433Z,48.80
2022-12-11T22:15:06.903Z,48.90
2022-12-11T22:17:33.937Z,48.90
2022-12-11T22:20:04.006Z,49.10
2022-12-11T22:22:30.474Z,48.90
2022-12-11T22:27:47.173Z,48.70
2022-12-11T22:30:13.660Z,48.80
2022-12-11T22:32:40.127Z,48.90
2022-12-11T22:35:10.461Z,48.90
2022-12-11T22:37:37.258Z,48.90
2022-12-11T22:40:03.746Z,48.80
2022-12-11T22:42:30.209Z,48.90
2022-12-11T22:44:56.696Z,48.90
2022-12-11T22:47:23.159Z,49.00
2022-12-11T22:49:52.019Z,48.70
2022-12-11T22:52:18.473Z,48.80
2022-12-11T22:54:44.938Z,48.80
2022-12-11T22:57:11.401Z,48.80
2022-12-11T22:59:37.886Z,48.60
2022-12-11T23:02:04.424Z,48.50
2022-12-11T23:04:30.918Z,48.60
2022-12-11T23:06:57.382Z,48.50
2022-12-11T23:09:23.846Z,48.50
2022-12-11T23:11:50.316Z,48.60
2022-12-11T23:14:22.213Z,48.60
2022-12-11T23:16:48.737Z,48.50
2022-12-11T23:19:15.213Z,48.40
2022-12-11T23:21:41.683Z,48.30
2022-12-11T23:24:08.148Z,48.30
2022-12-11T23:26:34.627Z,48.30
2022-12-11T23:29:04.068Z,48.30
2022-12-11T23:31:30.569Z,48.40
2022-12-11T23:33:57.053Z,48.50
2022-12-11T23:39:14.134Z,48.30
2022-12-11T23:50:13.313Z,48.30
2022-12-11T23:52:39.776Z,48.20
2022-12-11T23:55:06.245Z,48.20
2022-12-11T23:57:32.699Z,48.20
